Time;durP1;ratioP1;P1;durP2;ratioP2;P2;SDS_P1;SDS_P2;PMS_P1;PMS_P2;Temp;Humidity;BMP_temperature;BMP_pressure;BME280_temperature;BME280_humidity;BME280_pressure;Samples;Min_cycle;Max_cycle;Signal;HPM_P1;HPM_P2
2023/07/31 02:10:26;;;;;;;;;;;;;;;;;;;;;
2023/07/31 02:16:17;;;;;;;4.15;1.85;;;;;;;;;;4836043;29;20057;-84
2023/07/31 06:10:56;;;;;;;5.65;1.85;;;;;;;;;;3763536;23;20540;-83
2023/07/31 06:13:22;;;;;;;7.50;2.13;;;;;;;;;;4978372;28;20062;-85
2023/07/31 06:16:08;;;;;;;11.85;4.72;;;;;;;;;;4950169;28;20126;-86
2023/07/31 06:18:34;;;;;;;8.07;3.33;;;;;;;;;;4970367;28;20077;-84
2023/07/31 06:21:00;;;;;;;5.72;2.60;;;;;;;;;;4971067;28;20070;-85
2023/07/31 06:23:27;;;;;;;7.65;1.77;;;;;;;;;;4969829;28;20053;-85
2023/07/31 06:25:53;;;;;;;5.88;2.10;;;;;;;;;;4950270;29;20511;-85
2023/07/31 06:28:19;;;;;;;6.32;1.83;;;;;;;;;;4951253;28;20087;-85
2023/07/31 06:33:40;;;;;;;;;;;;;;;;;;;;;
2023/07/31 06:36:06;;;;;;;5.45;1.70;;;;;;;;;;5013809;28;20038;-85
2023/07/31 06:44:30;;;;;;;5.93;1.70;;;;;;;;;;4959993;28;20041;-87
2023/07/31 06:47:14;;;;;;;7.88;2.00;;;;;;;;;;4954571;28;20039;-88
2023/07/31 06:53:40;;;;;;;;;;;;;;;;;;;;;
2023/07/31 09:18:22;;;;;;;7.97;1.80;;;;;;;;;;574037;23;20394;31
2023/07/31 09:21:27;;;;;;;;;;;;;;;;;;;;;
2023/07/31 09:34:02;;;;;;;7.07;1.15;;;;;;;;;;4818315;29;20033;-85
2023/07/31 09:36:58;;;;;;;4.68;1.10;;;;;;;;;;4818283;29;20065;-85
2023/07/31 12:15:03;;;;;;;4.85;1.80;;;;;;;;;;5307499;23;20390;-82
2023/07/31 12:20:30;;;;;;;5.40;1.73;;;;;;;;;;4967169;28;20142;-83
2023/07/31 12:34:32;;;;;;;4.38;1.60;;;;;;;;;;5096775;23;20074;-84
2023/07/31 12:36:59;;;;;;;4.90;1.48;;;;;;;;;;4961748;28;20477;-82
2023/07/31 12:39:32;;;;;;;5.35;1.50;;;;;;;;;;4973973;28;20801;-84
2023/07/31 12:42:01;;;;;;;4.60;1.50;;;;;;;;;;4975965;28;20038;-84
2023/07/31 12:44:29;;;;;;;3.17;1.25;;;;;;;;;;4974737;28;20086;-84
2023/07/31 12:46:56;;;;;;;6.05;1.17;;;;;;;;;;4969732;28;20094;-84
2023/07/31 12:49:34;;;;;;;3.22;1.17;;;;;;;;;;4979515;28;20077;-85
2023/07/31 12:52:34;;;;;;;4.18;1.38;;;;;;;;;;4962707;28;20528;-84
2023/07/31 12:55:21;;;;;;;9.43;2.22;;;;;;;;;;4964965;28;20125;-84
2023/07/31 12:57:49;;;;;;;5.80;1.58;;;;;;;;;;4972324;28;20104;-85
2023/07/31 13:03:36;;;;;;;3.92;1.30;;;;;;;;;;4960194;28;20038;-84
2023/07/31 13:06:05;;;;;;;4.38;1.30;;;;;;;;;;4974258;28;20393;-83
2023/07/31 13:08:33;;;;;;;4.90;1.55;;;;;;;;;;4973568;28;20560;-84
2023/07/31 13:10:59;;;;;;;6.32;1.73;;;;;;;;;;4975165;28;20403;-83
2023/07/31 13:13:50;;;;;;;4.53;1.17;;;;;;;;;;4992772;28;20034;-84
2023/07/31 13:16:26;;;;;;;4.20;1.05;;;;;;;;;;4974102;28;20076;-85
2023/07/31 13:19:03;;;;;;;5.28;1.50;;;;;;;;;;4976202;28;20035;-86
2023/07/31 13:21:29;;;;;;;5.05;1.63;;;;;;;;;;4984101;28;20678;-85
2023/07/31 13:24:00;;;;;;;3.65;1.40;;;;;;;;;;4970335;28;20038;-85
2023/07/31 13:26:35;;;;;;;5.53;1.63;;;;;;;;;;4971428;28;20038;-84
2023/07/31 13:29:14;;;;;;;;;;;;;;;;;;;;;
2023/07/31 13:31:50;;;;;;;6.57;1.35;;;;;;;;;;4981612;28;20054;-85
2023/07/31 13:34:41;;;;;;;;;;;;;;;;;;;;;
2023/07/31 13:37:48;;;;;;;;;;;;;;;;;;;;;
2023/07/31 13:43:44;;;;;;;5.13;1.35;;;;;;;;;;4973849;28;20076;-87
2023/07/31 13:46:12;;;;;;;4.80;1.80;;;;;;;;;;4965916;28;20046;-86
2023/07/31 13:48:38;;;;;;;9.93;1.85;;;;;;;;;;4977860;28;20112;-86
2023/07/31 13:51:09;;;;;;;5.55;1.40;;;;;;;;;;4977844;28;20536;-85
2023/07/31 13:53:43;;;;;;;3.80;1.58;;;;;;;;;;4978185;28;20042;-87
2023/07/31 13:56:09;;;;;;;7.35;1.77;;;;;;;;;;4978573;28;20066;-85
2023/07/31 13:58:55;;;;;;;3.78;1.35;;;;;;;;;;4978008;28;20042;-86
2023/07/31 14:01:24;;;;;;;6.45;2.05;;;;;;;;;;4977765;28;20133;-85
2023/07/31 14:03:50;;;;;;;5.40;1.45;;;;;;;;;;4976624;28;20034;-84
2023/07/31 14:06:16;;;;;;;5.60;1.17;;;;;;;;;;4992939;28;20393;-83
2023/07/31 14:08:42;;;;;;;4.30;1.58;;;;;;;;;;4992526;28;20114;-84
2023/07/31 14:11:08;;;;;;;5.97;1.83;;;;;;;;;;4974686;28;20421;-85
2023/07/31 14:28:11;;;;;;;3.88;1.38;;;;;;;;;;5007906;28;20044;-83
2023/07/31 14:34:47;;;;;;;5.88;1.33;;;;;;;;;;5010234;28;20057;-83
2023/07/31 15:07:41;;;;;;;7.45;1.85;;;;;;;;;;4272681;26;20133;-82
2023/07/31 15:10:18;;;;;;;5.45;1.63;;;;;;;;;;4989391;28;20045;-83
2023/07/31 15:12:49;;;;;;;6.10;1.60;;;;;;;;;;4991238;28;20046;-83
2023/07/31 15:15:26;;;;;;;;;;;;;;;;;;;;;
2023/07/31 15:17:55;;;;;;;4.30;1.60;;;;;;;;;;5002394;28;20042;-83
2023/07/31 18:25:01;;;;;;;8.02;3.80;;;;;;;;;;1397544;26;20046;-83
2023/07/31 18:27:27;;;;;;;7.68;3.78;;;;;;;;;;5005382;28;20493;-83
2023/07/31 18:29:53;;;;;;;12.18;4.53;;;;;;;;;;5008629;28;20030;-83
2023/07/31 18:32:19;;;;;;;8.93;3.72;;;;;;;;;;4986999;28;20050;-83
2023/07/31 18:34:45;;;;;;;6.78;2.95;;;;;;;;;;5009021;28;20049;-83
2023/07/31 18:37:11;;;;;;;8.18;3.15;;;;;;;;;;4990004;28;20500;-83
2023/07/31 18:39:37;;;;;;;6.55;2.47;;;;;;;;;;4983704;28;20077;-84
2023/07/31 18:42:03;;;;;;;7.55;2.92;;;;;;;;;;5007467;28;20831;-84
2023/07/31 18:44:30;;;;;;;7.78;3.58;;;;;;;;;;5008591;28;20038;-83
2023/07/31 18:46:56;;;;;;;8.77;3.70;;;;;;;;;;4991812;28;20645;-83
2023/07/31 18:49:22;;;;;;;10.23;4.15;;;;;;;;;;4991035;28;20041;-83
2023/07/31 18:51:48;;;;;;;8.82;4.72;;;;;;;;;;5008536;28;20052;-84
2023/07/31 18:54:14;;;;;;;8.25;4.32;;;;;;;;;;4981038;28;20042;-83
2023/07/31 18:56:40;;;;;;;7.40;3.67;;;;;;;;;;5009876;28;20105;-84
2023/07/31 20:46:55;;;;;;;;;;;;;;;;;;;;;
2023/07/31 21:50:34;;;;;;;8.45;2.03;;;;;;;;;;4880891;29;20051;-82
